• Join FlightAware (Why Join?)
  • Login
  • US Flag 
07:01PM EDT


 

Airport Tracker/Info


-or-


 

Live Flight TrackerFlight Track Log ✈ USC105 ✈ 02-Jul-2013 ✈ KYIP - KLCK

Flight Track Log - Related Links

Times and Time Zones

All times are in EDT time to prevent confusion due to time zone crossing. See the USC105 flight status page for this flight to view local times or setup timezone preferences in your user account.

Time Position Orientation Groundspeed Altitude Reporting Facility
EDT Latitude Longitude Course Direction KTS MPH feet Rate Location/Type
07:16AM 42.2372 -83.5925 259° West 140 161 2,200  Level Cleveland Center
07:17AM 42.2317 -83.6456 262° West 142 163 3,500 1,200 Climbing Cleveland Center
07:18AM 42.2517 -83.6831 306° West 136 157 4,800 720 Climbing Cleveland Center
07:19AM 42.2811 -83.6675 21° North 164 189 5,000 60 Climbing Cleveland Center
07:21AM 42.2597 -83.6106 117° Southeast 162 186 5,000  Level Cleveland Center
07:22AM 42.2383 -83.5506 116° Southeast 175 201 5,000  Level Cleveland Center
07:23AM 42.2214 -83.4881 110° East 175 201 5,000  Level Cleveland Center
07:23AM 42.2058 -83.4342 111° Southeast 175 201 5,000  Level Cleveland Center
07:24AM 42.1867 -83.3717 112° Southeast 175 201 5,000  Level Cleveland Center
07:25AM 42.1714 -83.3064 108° East 175 201 5,000  Level Cleveland Center
07:26AM 42.1561 -83.2497 110° East 175 201 5,000  Level Cleveland Center
07:27AM 42.1367 -83.1900 114° Southeast 175 201 5,000  Level Cleveland Center
07:28AM 42.1003 -83.1467 139° Southeast 181 208 5,000  Level Cleveland Center
07:29AM 42.0553 -83.1056 146° Southeast 181 208 5,000  Level Cleveland Center
07:30AM 42.0225 -83.0708 142° Southeast 182 209 5,000  Level Cleveland Center
07:32AM 41.9777 -83.0678 200° South  Level Estimated
07:39AM 41.7019 -83.0495 200° South  Level Estimated
07:39AM 41.6406 -83.2458 177° South 186 214 5,000  Level Indianapolis Center
07:40AM 41.6955 -83.1016 261° West  Level FlightAware Approximate
07:40AM 41.5889 -83.2369 173° South 184 212 5,000  Level Indianapolis Center
07:41AM 41.6567 -83.0991 177° South  Level FlightAware Approximate
07:41AM 41.5372 -83.2283 173° South 185 213 5,000  Level Indianapolis Center
07:42AM 41.6179 -83.0965 177° South  Level FlightAware Approximate
07:42AM 41.4867 -83.2189 172° South 184 212 5,000  Level Indianapolis Center
07:43AM 41.5790 -83.0939 177° South  Level FlightAware Approximate
07:43AM 41.4364 -83.2103 173° South 183 211 5,000  Level Indianapolis Center
07:44AM 41.5402 -83.0914 177° South  Level FlightAware Approximate
07:44AM 41.3850 -83.2011 172° South 183 211 5,000  Level Indianapolis Center
07:45AM 41.3344 -83.1925 173° South 183 211 5,000  Level Indianapolis Center
07:46AM 41.2842 -83.1836 172° South 182 209 5,000  Level Indianapolis Center
07:47AM 41.2322 -83.1742 172° South 185 213 5,000  Level Indianapolis Center
07:48AM 41.1825 -83.1656 173° South 181 208 5,000  Level Indianapolis Center
07:49AM 41.1322 -83.1564 172° South 182 209 5,000  Level Indianapolis Center
07:50AM 41.0806 -83.1486 174° South 184 212 5,000  Level Indianapolis Center
07:51AM 41.0300 -83.1389 172° South 182 209 5,000  Level Indianapolis Center
07:52AM 40.9700 -83.1283 172° South 184 212 5,000  Level Indianapolis Center
07:53AM 40.9194 -83.1203 173° South 182 209 5,000  Level Indianapolis Center
07:54AM 40.8686 -83.1125 173° South 181 208 5,000  Level Indianapolis Center
07:55AM 40.8178 -83.1017 171° South 183 211 5,000 -60 Level Indianapolis Center
07:56AM 40.7664 -83.0931 173° South 184 212 4,900 -60 Descending Indianapolis Center
07:57AM 40.7156 -83.0844 173° South 183 211 4,900  Level Indianapolis Center
07:58AM 40.6647 -83.0769 174° South 183 211 4,900  Level Indianapolis Center
07:59AM 40.6142 -83.0675 172° South 181 208 5,000  Climbing Indianapolis Center
08:00AM 40.5622 -83.0578 172° South 185 213 5,000  Level Indianapolis Center
08:01AM 40.5136 -83.0494 173° South 182 209 5,000  Level Indianapolis Center
08:02AM 40.4631 -83.0411 173° South 182 209 5,000  Level Indianapolis Center
08:03AM 40.4039 -83.0314 173° South 181 208 5,000  Level Indianapolis Center
08:04AM 40.3542 -83.0225 172° South 180 207 5,000  Level Indianapolis Center
08:05AM 40.3031 -83.0147 173° South 181 208 5,000  Level Indianapolis Center
08:06AM 40.2528 -83.0056 172° South 181 208 5,000  Level Indianapolis Center
08:07AM 40.2022 -82.9964 172° South 181 208 5,000  Level Indianapolis Center
08:08AM 40.1522 -82.9897 174° South 180 207 5,000  Level Indianapolis Center
08:09AM 40.1042 -83.0064 195° South 177 204 5,000  Level Indianapolis Center
08:10AM 40.0561 -83.0236 195° South 176 203 5,000  Level Indianapolis Center
08:12AM 40.0000 -83.0433 195° South 177 204 5,000  Level Indianapolis Center
08:12AM 39.9603 -83.0553 193° South 175 201 5,000 -480 Level Indianapolis Center
08:13AM 39.9089 -83.0725 194° South 184 212 4,200 -900 Descending Indianapolis Center
08:14AM 39.8558 -83.0903 194° South 189 217 3,200 -600 Descending Indianapolis Center
08:15AM 39.8022 -83.1097 196° South 186 214 3,100 -120 Descending Indianapolis Center
08:17AM 39.7597 -83.1189 189° South 176 203 3,000 -60 Descending Indianapolis Center
08:18AM 39.7344 -83.0653 122° Southeast 178 205 3,000 -300 Level Indianapolis Center
08:19AM 39.7572 -83.0039 64° Northeast 177 204 2,500 -840 Descending Indianapolis Center
08:20AM 39.7869 -82.9650 45° Northeast 163 188 1,400 -660 Descending Indianapolis Center
08:21AM 39.8147 -82.9297 44° Northeast 160 184 1,200 -240 Descending Indianapolis Center